Terminal Aerodrome Forecast
Issued by NWS Cleveland, OH

Home | Current Version | Previous Version | Text Only | Print | Product List | Glossary Off
Versions: 1 2 3 4 5 6 7 8 9 10 11 12 13 14 15 16 17 18

994
FTUS41 KCLE 190534
TAFERI
TAF
KERI 190534Z 1906/2006 30025G40KT 4SM -SHRASN OVC007
     FM191400 29020G40KT P6SM -SHRASN OVC020
     FM191600 29020G35KT P6SM -SHRASN OVC025
     FM192000 28020G35KT 6SM -SHSNRA OVC015
     FM200000 29020G30KT P6SM -SHSN OVC035=

USA.gov is the U.S. government's official web portal to all federal, state and local government web resources and services.